createdAt,value
2018-02-15T00:00:05.307Z,15.15
2018-02-15T00:02:32.814Z,15.18
2018-02-15T00:05:00.346Z,14.65
2018-02-15T00:07:27.954Z,15.13
2018-02-15T00:09:56.261Z,14.18
2018-02-15T00:12:23.773Z,16.15
2018-02-15T00:14:52.099Z,15.07
2018-02-15T00:17:19.614Z,15.10
2018-02-15T00:19:47.950Z,14.85
2018-02-15T00:22:15.467Z,15.70
2018-02-15T00:24:43.781Z,15.00
2018-02-15T00:27:11.423Z,13.80
2018-02-15T00:29:38.991Z,15.18
2018-02-15T00:32:06.632Z,13.30
2018-02-15T00:34:34.198Z,14.90
2018-02-15T00:37:01.733Z,14.30
2018-02-15T00:39:30.044Z,14.45
2018-02-15T00:41:57.592Z,14.25
2018-02-15T00:44:25.931Z,14.95
2018-02-15T00:46:53.594Z,14.38
2018-02-15T00:49:21.203Z,13.60
2018-02-15T00:51:48.723Z,13.80
2018-02-15T00:54:17.123Z,13.98
2018-02-15T00:56:44.629Z,14.05
2018-02-15T00:59:12.161Z,13.52
2018-02-15T01:01:39.674Z,12.68
2018-02-15T01:04:08.024Z,13.70
2018-02-15T01:06:35.533Z,12.98
2018-02-15T01:09:04.183Z,12.43
2018-02-15T01:11:31.708Z,13.70
2018-02-15T01:14:00.971Z,14.13
2018-02-15T01:16:29.243Z,14.60
2018-02-15T01:18:57.572Z,14.63
2018-02-15T01:21:25.080Z,12.55
2018-02-15T01:23:53.417Z,13.98
2018-02-15T01:26:21.031Z,13.82
2018-02-15T01:28:48.599Z,13.45
2018-02-15T01:31:16.118Z,13.02
2018-02-15T01:33:43.648Z,14.32
2018-02-15T01:36:11.147Z,13.30
2018-02-15T01:38:39.463Z,13.95
2018-02-15T01:41:06.999Z,13.93
2018-02-15T01:43:34.538Z,13.82
2018-02-15T01:46:02.832Z,13.60
2018-02-15T01:48:30.420Z,14.40
2018-02-15T01:50:57.963Z,13.23
2018-02-15T01:53:25.527Z,12.63
2018-02-15T01:55:53.055Z,13.62
2018-02-15T01:58:21.346Z,13.25
2018-02-15T02:00:48.877Z,13.73
2018-02-15T02:03:16.439Z,13.60
2018-02-15T02:05:43.979Z,14.55
2018-02-15T02:08:11.542Z,15.38
2018-02-15T02:10:39.298Z,13.73
2018-02-15T02:13:06.840Z,14.55
2018-02-15T02:15:34.343Z,14.32
2018-02-15T02:18:02.653Z,14.25
2018-02-15T02:20:30.155Z,15.60
2018-02-15T02:22:57.719Z,14.25
2018-02-15T02:25:25.236Z,13.50
2018-02-15T02:27:52.800Z,14.30
2018-02-15T02:30:20.353Z,14.48
2018-02-15T02:32:47.888Z,15.20
2018-02-15T02:35:16.171Z,16.48
2018-02-15T02:37:43.718Z,14.25
2018-02-15T02:40:12.012Z,13.90
2018-02-15T02:42:39.555Z,14.20
2018-02-15T02:45:07.852Z,15.32
2018-02-15T02:47:35.389Z,14.02
2018-02-15T02:50:03.800Z,13.85
2018-02-15T02:52:31.442Z,15.20
2018-02-15T02:54:58.961Z,13.52
2018-02-15T02:57:26.491Z,14.48
2018-02-15T02:59:54.002Z,13.40
2018-02-15T03:02:22.348Z,14.38
2018-02-15T03:04:49.844Z,14.05
2018-02-15T03:07:18.151Z,15.18
2018-02-15T03:09:45.684Z,13.88
2018-02-15T03:12:13.267Z,13.82
2018-02-15T03:14:40.929Z,13.13
2018-02-15T03:17:08.458Z,15.43
2018-02-15T03:19:36.750Z,14.30
2018-02-15T03:22:04.366Z,15.98
2018-02-15T03:24:31.895Z,14.00
2018-02-15T03:26:59.412Z,14.82
2018-02-15T03:29:27.702Z,13.73
2018-02-15T03:31:55.307Z,14.63
2018-02-15T03:34:23.044Z,15.25
2018-02-15T03:36:50.615Z,13.88
2018-02-15T03:39:18.157Z,15.40
2018-02-15T03:41:46.051Z,15.32
2018-02-15T03:44:13.596Z,15.25
2018-02-15T03:46:41.204Z,13.15
2018-02-15T03:49:08.743Z,14.40
2018-02-15T03:51:36.273Z,14.02
2018-02-15T03:54:03.807Z,15.13
2018-02-15T03:56:31.393Z,14.82
2018-02-15T03:58:58.944Z,15.95
2018-02-15T04:01:27.412Z,17.65
2018-02-15T04:03:54.947Z,17.08
2018-02-15T04:06:23.363Z,19.00
2018-02-15T04:08:50.868Z,18.00
2018-02-15T04:11:18.462Z,19.00
2018-02-15T04:13:45.976Z,19.35
2018-02-15T04:16:13.513Z,21.65
2018-02-15T04:18:41.035Z,22.00
2018-02-15T04:21:08.602Z,23.40
2018-02-15T04:23:36.108Z,22.90
2018-02-15T04:26:03.704Z,23.65
2018-02-15T04:28:31.995Z,22.95
2018-02-15T04:30:59.661Z,25.37
2018-02-15T04:33:27.171Z,25.83
2018-02-15T04:35:54.710Z,28.42
2018-02-15T04:38:22.210Z,27.23
2018-02-15T04:40:50.568Z,26.10
2018-02-15T04:43:18.112Z,30.83
2018-02-15T04:45:45.691Z,27.83
2018-02-15T04:48:13.221Z,28.42
2018-02-15T04:50:40.864Z,27.98
2018-02-15T04:53:08.380Z,30.83
2018-02-15T04:55:35.967Z,29.02
2018-02-15T04:58:03.491Z,31.55
2018-02-15T05:00:31.051Z,29.95
2018-02-15T05:02:58.650Z,29.80
2018-02-15T05:05:26.312Z,31.02
2018-02-15T05:07:53.824Z,32.10
2018-02-15T05:10:21.859Z,31.12
2018-02-15T05:12:49.389Z,32.47
2018-02-15T05:15:17.674Z,31.95
2018-02-15T05:17:45.198Z,32.97
2018-02-15T05:20:12.726Z,31.02
2018-02-15T05:22:40.248Z,32.40
2018-02-15T05:25:07.787Z,36.17
2018-02-15T05:27:36.054Z,34.22
2018-02-15T05:30:03.607Z,32.97
2018-02-15T05:32:31.216Z,31.77
2018-02-15T05:34:58.877Z,34.15
2018-02-15T05:37:26.377Z,32.08
2018-02-15T05:39:55.791Z,34.40
2018-02-15T05:42:23.306Z,32.17
2018-02-15T05:44:50.856Z,33.72
2018-02-15T05:47:18.389Z,31.92
2018-02-15T05:49:46.791Z,33.22
2018-02-15T05:52:14.477Z,32.47
2018-02-15T05:54:42.049Z,34.40
2018-02-15T05:57:09.750Z,35.90
2018-02-15T05:59:38.220Z,35.55
2018-02-15T06:02:05.892Z,32.38
2018-02-15T06:04:34.199Z,34.20
2018-02-15T06:07:01.735Z,33.00
2018-02-15T06:09:30.142Z,35.42
2018-02-15T06:11:57.721Z,32.55
2018-02-15T06:14:25.329Z,34.92
2018-02-15T06:16:53.693Z,35.13
2018-02-15T06:19:21.360Z,33.75
2018-02-15T06:21:49.820Z,32.38
2018-02-15T06:24:17.384Z,33.65
2018-02-15T06:26:46.569Z,34.10
2018-02-15T06:29:14.133Z,34.17
2018-02-15T06:31:41.697Z,34.63
2018-02-15T06:34:09.254Z,33.67
2018-02-15T06:36:36.787Z,34.63
2018-02-15T06:39:04.340Z,32.97
2018-02-15T06:41:34.651Z,33.80
2018-02-15T06:44:02.391Z,30.25
2018-02-15T06:46:30.697Z,31.60
2018-02-15T06:48:58.260Z,31.52
2018-02-15T06:51:25.826Z,29.23
2018-02-15T06:53:53.438Z,30.73
2018-02-15T06:56:21.776Z,31.65
2018-02-15T06:58:49.357Z,31.73
2018-02-15T07:01:16.929Z,30.50
2018-02-15T07:03:44.545Z,29.15
2018-02-15T07:06:12.095Z,28.85
2018-02-15T07:08:39.643Z,29.23
2018-02-15T07:11:07.193Z,26.62
2018-02-15T07:13:34.900Z,26.40
2018-02-15T07:16:02.461Z,25.40
2018-02-15T07:18:30.183Z,24.15
2018-02-15T07:20:59.699Z,26.05
2018-02-15T07:23:27.288Z,21.12
2018-02-15T07:25:54.853Z,22.02
2018-02-15T07:28:22.749Z,23.05
2018-02-15T07:30:51.038Z,23.73
2018-02-15T07:33:20.521Z,23.05
2018-02-15T07:35:48.880Z,21.62
2018-02-15T07:38:16.454Z,20.33
2018-02-15T07:40:44.081Z,22.80
2018-02-15T07:43:11.729Z,21.65
2018-02-15T07:45:39.315Z,22.25
2018-02-15T07:48:06.896Z,22.83
2018-02-15T07:50:34.506Z,19.62
2018-02-15T07:53:02.085Z,20.70
2018-02-15T07:55:29.625Z,19.45
2018-02-15T07:57:57.211Z,19.48
2018-02-15T08:00:24.895Z,18.20
2018-02-15T08:02:52.486Z,19.45
2018-02-15T08:05:20.042Z,19.62
2018-02-15T08:07:48.399Z,19.83
2018-02-15T08:10:16.041Z,20.05
2018-02-15T08:12:43.625Z,20.33
2018-02-15T08:15:11.208Z,19.60
2018-02-15T08:17:39.556Z,19.73
2018-02-15T08:20:07.894Z,19.00
2018-02-15T08:22:35.484Z,20.70
2018-02-15T08:25:03.041Z,21.35
2018-02-15T08:27:30.648Z,18.58
2018-02-15T08:29:58.196Z,19.12
2018-02-15T08:32:26.580Z,18.58
2018-02-15T08:34:54.892Z,17.37
2018-02-15T08:37:22.447Z,19.92
2018-02-15T08:39:50.019Z,19.77
2018-02-15T08:42:17.584Z,19.73
2018-02-15T08:44:45.132Z,18.73
2018-02-15T08:47:13.516Z,18.27
2018-02-15T08:49:41.105Z,19.95
2018-02-15T08:52:08.761Z,18.85
2018-02-15T08:54:36.317Z,18.77
2018-02-15T08:57:03.896Z,20.33
2018-02-15T08:59:32.244Z,20.55
2018-02-15T09:01:59.825Z,21.35
2018-02-15T09:04:27.491Z,19.55
2018-02-15T09:06:55.067Z,20.23
2018-02-15T09:09:23.380Z,19.02
2018-02-15T09:11:50.952Z,20.27
2018-02-15T09:14:18.508Z,19.85
2018-02-15T09:16:46.155Z,20.20
2018-02-15T09:19:13.727Z,19.05
2018-02-15T09:21:41.325Z,19.85
2018-02-15T09:24:08.968Z,21.08
2018-02-15T09:26:37.112Z,19.73
2018-02-15T09:29:04.659Z,19.12
2018-02-15T09:31:32.259Z,20.48
2018-02-15T09:33:59.813Z,20.73
2018-02-15T09:36:27.396Z,21.42
2018-02-15T09:38:54.940Z,21.90
2018-02-15T09:41:22.544Z,21.58
2018-02-15T09:43:50.869Z,20.60
2018-02-15T09:46:18.485Z,21.65
2018-02-15T09:48:46.787Z,23.05
2018-02-15T09:51:14.348Z,22.08
2018-02-15T09:53:41.908Z,23.58
2018-02-15T09:56:09.531Z,26.05
2018-02-15T09:58:37.839Z,23.80
2018-02-15T10:01:05.460Z,25.33
2018-02-15T10:03:33.788Z,23.38
2018-02-15T10:06:01.369Z,23.98
2018-02-15T10:08:28.919Z,24.75
2018-02-15T10:10:56.491Z,23.87
2018-02-15T10:13:24.037Z,24.98
2018-02-15T10:15:52.312Z,25.45
2018-02-15T10:18:19.864Z,26.10
2018-02-15T10:20:47.553Z,25.55
2018-02-15T10:23:15.108Z,27.25
2018-02-15T10:25:42.765Z,27.98
2018-02-15T10:28:10.572Z,26.17
2018-02-15T10:30:39.085Z,26.10
2018-02-15T10:33:06.632Z,25.65
2018-02-15T10:35:34.520Z,25.92
2018-02-15T10:38:02.089Z,28.50
2018-02-15T10:40:30.239Z,29.63
2018-02-15T10:42:57.812Z,27.30
2018-02-15T10:45:25.384Z,27.75
2018-02-15T10:47:52.928Z,26.08
2018-02-15T10:50:20.501Z,28.62
2018-02-15T10:52:48.059Z,27.40
2018-02-15T10:55:15.759Z,26.92
2018-02-15T10:57:44.080Z,26.80
2018-02-15T11:00:11.680Z,26.70
2018-02-15T11:02:39.318Z,26.85
2018-02-15T11:05:12.516Z,28.67
2018-02-15T11:07:40.194Z,26.80
2018-02-15T11:10:08.609Z,25.77
2018-02-15T11:12:36.325Z,28.62
2018-02-15T11:15:04.019Z,28.30
2018-02-15T11:17:32.382Z,26.17
2018-02-15T11:19:59.984Z,27.02
2018-02-15T11:22:27.516Z,25.80
2018-02-15T11:24:55.867Z,27.10
2018-02-15T11:27:23.423Z,25.73
2018-02-15T11:29:51.049Z,24.90
2018-02-15T11:32:18.636Z,23.87
2018-02-15T11:34:46.309Z,24.40
2018-02-15T11:37:14.044Z,26.70
2018-02-15T11:39:41.617Z,24.25
2018-02-15T11:42:09.207Z,24.10
2018-02-15T11:44:36.772Z,25.25
2018-02-15T11:47:04.370Z,23.42
2018-02-15T11:49:32.033Z,24.70
2018-02-15T11:51:59.571Z,23.87
2018-02-15T11:54:27.895Z,22.25
2018-02-15T11:56:55.460Z,22.67
2018-02-15T11:59:23.048Z,22.42
2018-02-15T12:01:50.677Z,23.12
2018-02-15T12:04:18.319Z,22.73
2018-02-15T12:06:46.009Z,22.45
2018-02-15T12:09:13.569Z,23.27
2018-02-15T12:11:41.108Z,21.50
2018-02-15T12:14:10.062Z,24.25
2018-02-15T12:16:38.373Z,23.45
2018-02-15T12:19:06.017Z,22.45
2018-02-15T12:21:34.371Z,22.15
2018-02-15T12:24:02.875Z,23.15
2018-02-15T12:26:30.414Z,22.85
2018-02-15T12:28:58.760Z,21.33
2018-02-15T12:31:26.457Z,21.25
2018-02-15T12:33:54.893Z,20.88
2018-02-15T12:36:22.563Z,21.67
2018-02-15T12:38:50.826Z,21.77
2018-02-15T12:41:18.450Z,22.27
2018-02-15T12:43:46.126Z,22.25
2018-02-15T12:46:13.694Z,21.35
2018-02-15T12:48:41.259Z,23.35
2018-02-15T12:51:08.813Z,21.05
2018-02-15T12:53:36.382Z,20.10
2018-02-15T12:56:03.962Z,20.27
2018-02-15T12:58:31.525Z,21.58
2018-02-15T13:00:59.107Z,20.80
2018-02-15T13:03:26.738Z,19.60
2018-02-15T13:05:54.277Z,20.70
2018-02-15T13:08:21.862Z,20.05
2018-02-15T13:10:50.906Z,20.20
2018-02-15T13:13:33.550Z,20.50
2018-02-15T13:16:13.181Z,19.25
2018-02-15T13:18:40.758Z,19.50
2018-02-15T13:21:08.318Z,17.67
2018-02-15T13:23:35.882Z,19.15
2018-02-15T13:26:03.549Z,19.77
2018-02-15T13:28:39.138Z,18.85
2018-02-15T13:31:07.461Z,19.30
2018-02-15T13:33:35.065Z,18.62
2018-02-15T13:36:03.390Z,17.55
2018-02-15T13:38:30.975Z,16.23
2018-02-15T13:40:58.520Z,18.77
2018-02-15T13:43:26.104Z,18.67
2018-02-15T13:45:53.634Z,18.87
2018-02-15T13:48:21.250Z,18.95
2018-02-15T13:50:49.583Z,18.27
2018-02-15T13:53:17.213Z,18.45
2018-02-15T13:55:44.756Z,19.20
2018-02-15T13:58:12.340Z,20.25
2018-02-15T14:00:39.887Z,18.75
2018-02-15T14:03:07.479Z,19.75
2018-02-15T14:05:35.033Z,19.20
2018-02-15T14:08:02.626Z,17.98
2018-02-15T14:10:30.186Z,19.00
2018-02-15T14:12:57.776Z,17.45
2018-02-15T14:15:26.111Z,19.30
2018-02-15T14:17:53.718Z,19.85
2018-02-15T14:20:21.315Z,19.55
2018-02-15T14:22:48.894Z,17.05
2018-02-15T14:25:16.450Z,18.52
2018-02-15T14:27:43.996Z,19.65
2018-02-15T14:30:11.615Z,18.37
2018-02-15T14:32:39.935Z,18.65
2018-02-15T14:35:07.500Z,19.75
2018-02-15T14:37:35.151Z,18.87
2018-02-15T14:40:02.728Z,18.35
2018-02-15T14:42:30.293Z,19.05
2018-02-15T14:44:57.944Z,18.17
2018-02-15T14:47:25.521Z,18.35
2018-02-15T14:49:53.152Z,18.67
2018-02-15T14:52:20.708Z,18.00
2018-02-15T14:54:48.280Z,17.92
2018-02-15T14:57:15.819Z,16.55
2018-02-15T14:59:45.142Z,18.73
2018-02-15T15:02:12.735Z,16.55
2018-02-15T15:04:51.145Z,18.00
2018-02-15T15:07:18.689Z,17.70
2018-02-15T15:09:46.263Z,17.92
2018-02-15T15:12:13.812Z,18.90
2018-02-15T15:14:41.416Z,18.15
2018-02-15T15:17:08.990Z,18.08
2018-02-15T15:19:36.649Z,17.20
2018-02-15T15:22:04.181Z,17.62
2018-02-15T15:24:32.527Z,17.95
2018-02-15T15:27:00.097Z,18.17
2018-02-15T15:29:27.716Z,17.83
2018-02-15T15:31:55.552Z,17.30
2018-02-15T15:34:24.828Z,16.75
2018-02-15T15:36:52.493Z,16.90
2018-02-15T15:39:20.089Z,17.73
2018-02-15T15:41:48.554Z,16.08
2018-02-15T15:44:16.160Z,17.90
2018-02-15T15:46:43.790Z,17.37
2018-02-15T15:49:11.438Z,17.12
2018-02-15T15:51:39.753Z,17.98
2018-02-15T15:54:07.371Z,16.60
2018-02-15T15:56:35.812Z,17.80
2018-02-15T15:59:03.390Z,16.80
2018-02-15T16:01:31.708Z,17.27
2018-02-15T16:03:59.300Z,16.75
2018-02-15T16:06:26.860Z,16.08
2018-02-15T16:08:54.480Z,18.50
2018-02-15T16:11:22.156Z,18.27
2018-02-15T16:13:49.732Z,17.48
2018-02-15T16:16:17.298Z,17.12
2018-02-15T16:18:44.941Z,15.15
2018-02-15T16:21:12.484Z,17.10
2018-02-15T16:23:40.074Z,17.30
2018-02-15T16:26:07.634Z,18.02
2018-02-15T16:28:35.242Z,17.73
2018-02-15T16:31:02.789Z,16.30
2018-02-15T16:33:30.390Z,16.55
2018-02-15T16:35:57.944Z,17.05
2018-02-15T16:38:25.522Z,16.75
2018-02-15T16:40:53.121Z,16.95
2018-02-15T16:43:20.878Z,15.80
2018-02-15T16:48:22.523Z,17.90
2018-02-15T16:50:50.123Z,17.17
2018-02-15T16:53:18.503Z,15.82
2018-02-15T16:55:46.978Z,15.63
2018-02-15T16:58:14.516Z,16.65
2018-02-15T17:00:42.233Z,16.48
2018-02-15T17:03:09.799Z,16.42
2018-02-15T17:05:37.907Z,16.15
2018-02-15T17:08:05.678Z,15.73
2018-02-15T17:10:33.310Z,16.52
2018-02-15T17:13:00.881Z,14.07
2018-02-15T17:15:28.507Z,15.90
2018-02-15T17:17:56.897Z,16.23
2018-02-15T17:20:24.576Z,16.33
2018-02-15T17:22:52.506Z,14.98
2018-02-15T17:25:20.850Z,15.82
2018-02-15T17:27:48.479Z,16.48
2018-02-15T17:30:16.162Z,16.00
2018-02-15T17:32:43.775Z,15.48
2018-02-15T17:35:23.039Z,15.05
2018-02-15T17:37:50.596Z,14.98
2018-02-15T17:40:18.180Z,15.13
2018-02-15T17:42:45.873Z,25.67
2018-02-15T17:45:14.257Z,15.85
2018-02-15T17:47:42.620Z,15.88
2018-02-15T17:50:10.262Z,15.27
2018-02-15T17:52:37.810Z,15.43
2018-02-15T17:55:05.905Z,14.05
2018-02-15T17:57:33.519Z,14.70
2018-02-15T18:00:01.049Z,14.87
2018-02-15T18:02:29.428Z,14.63
2018-02-15T18:04:57.857Z,14.77
2018-02-15T18:07:25.432Z,14.18
2018-02-15T18:09:53.040Z,14.60
2018-02-15T18:12:21.454Z,15.40
2018-02-15T18:14:49.111Z,13.82
2018-02-15T18:17:16.740Z,13.80
2018-02-15T18:19:44.383Z,14.07
2018-02-15T18:22:11.986Z,14.93
2018-02-15T18:24:39.531Z,14.00
2018-02-15T18:27:07.213Z,14.10
2018-02-15T18:29:34.790Z,14.45
2018-02-15T18:32:02.382Z,14.95
2018-02-15T18:34:29.951Z,13.40
2018-02-15T18:36:58.305Z,12.90
2018-02-15T18:39:25.892Z,14.50
2018-02-15T18:41:54.255Z,17.98
2018-02-15T18:44:21.828Z,17.15
2018-02-15T18:46:50.236Z,19.73
2018-02-15T18:49:17.980Z,15.25
2018-02-15T18:51:46.414Z,14.80
2018-02-15T18:54:14.008Z,15.55
2018-02-15T18:56:42.354Z,14.87
2018-02-15T18:59:09.980Z,14.18
2018-02-15T19:01:37.549Z,14.68
2018-02-15T19:04:05.211Z,13.43
2018-02-15T19:06:38.700Z,13.90
2018-02-15T19:09:06.533Z,14.60
2018-02-15T19:11:35.689Z,14.63
2018-02-15T19:14:03.323Z,14.35
2018-02-15T19:16:30.893Z,14.68
2018-02-15T19:18:58.580Z,15.15
2018-02-15T19:21:26.213Z,15.52
2018-02-15T19:23:53.979Z,16.02
2018-02-15T19:26:21.583Z,14.80
2018-02-15T19:28:50.736Z,17.55
2018-02-15T19:31:18.399Z,17.65
2018-02-15T19:33:45.972Z,17.48
2018-02-15T19:36:13.623Z,16.35
2018-02-15T19:38:41.221Z,18.33
2018-02-15T19:41:08.846Z,18.75
2018-02-15T19:43:36.623Z,18.40
2018-02-15T19:46:04.196Z,16.62
2018-02-15T19:48:31.934Z,17.27
2018-02-15T19:50:59.653Z,17.77
2018-02-15T19:53:28.045Z,17.90
2018-02-15T19:55:56.452Z,16.08
2018-02-15T19:58:24.011Z,16.05
2018-02-15T20:00:51.680Z,16.60
2018-02-15T20:03:19.450Z,16.92
2018-02-15T20:05:47.208Z,16.15
2018-02-15T20:08:14.829Z,16.90
2018-02-15T20:10:43.178Z,16.42
2018-02-15T20:13:10.788Z,16.87
2018-02-15T20:15:49.331Z,17.17
2018-02-15T20:18:16.935Z,16.83
2018-02-15T20:20:45.361Z,16.65
2018-02-15T20:23:12.905Z,16.10
2018-02-15T20:25:40.528Z,15.30
2018-02-15T20:28:19.962Z,14.73
2018-02-15T20:30:47.556Z,15.57
2018-02-15T20:33:15.106Z,14.95
2018-02-15T20:35:43.539Z,14.87
2018-02-15T20:38:16.768Z,15.20
2018-02-15T20:40:46.011Z,14.10
2018-02-15T20:43:13.694Z,14.93
2018-02-15T20:45:45.472Z,14.85
2018-02-15T20:48:17.083Z,12.85
2018-02-15T20:50:51.740Z,15.00
2018-02-15T20:56:20.010Z,21.08
2018-02-15T20:58:47.621Z,17.42
2018-02-15T21:01:15.943Z,17.15
2018-02-15T21:03:43.602Z,18.05
2018-02-15T21:06:11.247Z,16.27
2018-02-15T21:08:38.926Z,16.12
2018-02-15T21:11:06.546Z,18.05
2018-02-15T21:13:34.944Z,17.45
2018-02-15T21:16:03.283Z,17.95
2018-02-15T21:18:30.885Z,19.35
2018-02-15T21:20:58.610Z,18.45
2018-02-15T21:23:27.062Z,20.40
2018-02-15T21:25:59.933Z,19.00
2018-02-15T21:28:28.066Z,17.30
2018-02-15T21:30:58.532Z,16.70
2018-02-15T21:33:26.234Z,20.37
2018-02-15T21:35:54.851Z,19.02
2018-02-15T21:38:23.203Z,19.45
2018-02-15T21:40:50.761Z,18.52
2018-02-15T21:43:18.379Z,17.80
2018-02-15T21:45:45.958Z,18.95
2018-02-15T21:48:13.556Z,19.92
2018-02-15T21:50:41.892Z,18.62
2018-02-15T21:53:09.550Z,19.08
2018-02-15T21:55:37.118Z,18.10
2018-02-15T21:58:15.943Z,17.90
2018-02-15T22:00:43.488Z,19.08
2018-02-15T22:03:11.185Z,19.98
2018-02-15T22:05:38.783Z,20.37
2018-02-15T22:08:07.105Z,23.60
2018-02-15T22:10:35.790Z,21.48
2018-02-15T22:13:03.388Z,21.62
2018-02-15T22:15:32.196Z,20.92
2018-02-15T22:17:59.725Z,23.02
2018-02-15T22:20:27.328Z,23.52
2018-02-15T22:22:54.833Z,22.45
2018-02-15T22:25:22.377Z,22.05
2018-02-15T22:27:49.907Z,24.83
2018-02-15T22:30:17.484Z,22.40
2018-02-15T22:32:45.792Z,22.30
2018-02-15T22:35:13.324Z,23.62
2018-02-15T22:37:41.419Z,22.80
2018-02-15T22:40:09.051Z,24.20
2018-02-15T22:42:36.575Z,22.15
2018-02-15T22:45:04.158Z,20.58
2018-02-15T22:47:31.691Z,21.73
2018-02-15T22:49:59.259Z,20.83
2018-02-15T22:52:26.795Z,21.48
2018-02-15T22:54:55.194Z,21.77
2018-02-15T22:57:22.708Z,24.20
2018-02-15T22:59:50.262Z,25.35
2018-02-15T23:02:17.763Z,24.70
2018-02-15T23:04:46.105Z,25.45
2018-02-15T23:07:13.619Z,26.48
2018-02-15T23:09:41.176Z,25.42
2018-02-15T23:12:08.688Z,25.90
2018-02-15T23:14:36.212Z,27.70
2018-02-15T23:17:03.745Z,28.08
2018-02-15T23:19:31.296Z,27.00
2018-02-15T23:21:59.580Z,28.80
2018-02-15T23:24:27.798Z,28.12
2018-02-15T23:26:55.301Z,26.70
2018-02-15T23:29:23.702Z,27.02
2018-02-15T23:31:51.219Z,26.98
2018-02-15T23:34:18.953Z,29.27
2018-02-15T23:36:46.543Z,30.15
2018-02-15T23:39:14.064Z,30.33
2018-02-15T23:41:41.606Z,26.55
2018-02-15T23:44:09.155Z,24.70
2018-02-15T23:46:36.678Z,26.67
2018-02-15T23:49:04.280Z,29.02
2018-02-15T23:51:31.806Z,29.90
2018-02-15T23:54:00.123Z,27.98
2018-02-15T23:56:27.674Z,29.45
2018-02-15T23:58:55.236Z,30.40
